PWSweather.com
Personal Weather Stations
Station Observations

SkegnessGB

Lat: 53.147585, Lon: 0.345774

Elevation: 18

Station Type: Fine Offset WH3080

http://www.skegnessweather.info/

High Low Average
Temperature 47.1°F8.4°C 32.9°F0.5°C 39.8°F4.3°C
Dew Point 41.6°F5.3°C 29.7°F-1.3°C 36.0°F2.2°C
Winds 19.1 mph 30.7 kmh 0.6 mph 1.0 kmh 10.0 mph SSW16.1 kmh SSW
Wind Gusts 21.7 mph34.9 kmh 2.5 mph4.0 kmh 11.0 mph17.7 kmh
Humidity 91% 80% 86%
Pressure 30.04 in1017.3 mb 29.64 in1003.7 mb -
Precipitation 0.02 in0.5 mm - -
Hour Temp Dew Point Humidity Winds Wind Gusts Pressure Precip Precip Rate Daily Precip Total
12:00 AM 34.5°F1.4°C 31.0°F-0.6°C 87% 4.0 mph SSW6.4 kmh SSW 4.9 mph7.9 kmh 30.04 in1017.3 mb 0.00 in0.0 mm 0.00 in0.0 mm 0.00 in0.0 mm
12:10 AM 34.7°F1.5°C 31.2°F-0.4°C 87% 4.0 mph S6.4 kmh S 4.9 mph7.9 kmh 30.04 in1017.3 mb 0.00 in0.0 mm 0.00 in0.0 mm 0.00 in0.0 mm
12:20 AM 34.5°F1.4°C 31.0°F-0.6°C 87% 2.8 mph SW4.5 kmh SW 3.4 mph5.5 kmh 30.03 in1016.9 mb 0.00 in0.0 mm 0.00 in0.0 mm 0.00 in0.0 mm
12:30 AM 34.3°F1.3°C 30.9°F-0.6°C 87% 3.4 mph SW5.5 kmh SW 3.4 mph5.5 kmh 30.03 in1016.9 mb 0.00 in0.0 mm 0.00 in0.0 mm 0.00 in0.0 mm
12:40 AM 34.2°F1.2°C 30.7°F-0.7°C 87% 3.7 mph S6.0 kmh S 4.9 mph7.9 kmh 30.03 in1016.9 mb 0.00 in0.0 mm 0.00 in0.0 mm 0.00 in0.0 mm
12:50 AM 34.2°F1.2°C 30.7°F-0.7°C 87% 4.3 mph S6.9 kmh S 4.9 mph7.9 kmh 30.02 in1016.6 mb 0.00 in0.0 mm 0.00 in0.0 mm 0.00 in0.0 mm
01:00 AM 34.0°F1.1°C 30.5°F-0.8°C 87% 4.5 mph SSW7.2 kmh SSW 4.9 mph7.9 kmh 30.03 in1016.9 mb 0.00 in0.0 mm 0.00 in0.0 mm 0.00 in0.0 mm
01:10 AM 33.8°F1.0°C 30.3°F-0.9°C 87% 4.7 mph SSW7.6 kmh SSW 4.2 mph6.8 kmh 30.03 in1016.9 mb 0.00 in0.0 mm 0.00 in0.0 mm 0.00 in0.0 mm
01:20 AM 33.8°F1.0°C 30.3°F-0.9°C 87% 5.4 mph S8.7 kmh S 5.9 mph9.5 kmh 30.03 in1016.9 mb 0.00 in0.0 mm 0.00 in0.0 mm 0.00 in0.0 mm
01:30 AM 34.0°F1.1°C 30.5°F-0.8°C 87% 6.4 mph SSW10.3 kmh SSW 7.6 mph12.2 kmh 30.03 in1016.9 mb 0.00 in0.0 mm 0.00 in0.0 mm 0.00 in0.0 mm
01:40 AM 34.0°F1.1°C 30.5°F-0.8°C 87% 4.3 mph SW6.9 kmh SW 4.9 mph7.9 kmh 30.02 in1016.6 mb 0.00 in0.0 mm 0.00 in0.0 mm 0.00 in0.0 mm
01:50 AM 34.0°F1.1°C 30.5°F-0.8°C 87% 3.5 mph SW5.6 kmh SW 4.2 mph6.8 kmh 30.02 in1016.6 mb 0.00 in0.0 mm 0.00 in0.0 mm 0.00 in0.0 mm
02:00 AM 34.2°F1.2°C 30.7°F-0.7°C 87% 3.0 mph SW4.8 kmh SW 4.2 mph6.8 kmh 30.02 in1016.6 mb 0.00 in0.0 mm 0.00 in0.0 mm 0.00 in0.0 mm
02:10 AM 34.7°F1.5°C 31.5°F-0.3°C 88% 5.6 mph S9.0 kmh S 5.9 mph9.5 kmh 30.02 in1016.6 mb 0.00 in0.0 mm 0.00 in0.0 mm 0.00 in0.0 mm
02:20 AM 34.9°F1.6°C 31.7°F-0.2°C 88% 5.4 mph SSW8.7 kmh SSW 5.9 mph9.5 kmh 30.03 in1016.9 mb 0.00 in0.0 mm 0.00 in0.0 mm 0.00 in0.0 mm
02:30 AM 34.9°F1.6°C 31.7°F-0.2°C 88% 4.8 mph SSE7.7 kmh SSE 5.9 mph9.5 kmh 30.03 in1016.9 mb 0.00 in0.0 mm 0.00 in0.0 mm 0.00 in0.0 mm
02:40 AM 34.9°F1.6°C 31.7°F-0.2°C 88% 6.0 mph SSW9.7 kmh SSW 5.9 mph9.5 kmh 30.03 in1016.9 mb 0.00 in0.0 mm 0.00 in0.0 mm 0.00 in0.0 mm
02:50 AM 34.9°F1.6°C 31.7°F-0.2°C 88% 5.4 mph S8.7 kmh S 6.6 mph10.6 kmh 30.02 in1016.6 mb 0.00 in0.0 mm 0.00 in0.0 mm 0.00 in0.0 mm
03:00 AM 34.7°F1.5°C 31.5°F-0.3°C 88% 5.2 mph SW8.4 kmh SW 6.6 mph10.6 kmh 30.02 in1016.6 mb 0.00 in0.0 mm 0.00 in0.0 mm 0.00 in0.0 mm
03:10 AM 34.7°F1.5°C 31.5°F-0.3°C 88% 4.4 mph SW7.1 kmh SW 4.2 mph6.8 kmh 30.02 in1016.6 mb 0.00 in0.0 mm 0.00 in0.0 mm 0.00 in0.0 mm
03:20 AM 34.3°F1.3°C 31.2°F-0.4°C 88% 4.4 mph S7.1 kmh S 6.6 mph10.6 kmh 30.01 in1016.3 mb 0.00 in0.0 mm 0.00 in0.0 mm 0.00 in0.0 mm
03:30 AM 34.2°F1.2°C 31.0°F-0.6°C 88% 5.1 mph SSW8.2 kmh SSW 6.6 mph10.6 kmh 30.01 in1016.3 mb 0.00 in0.0 mm 0.00 in0.0 mm 0.00 in0.0 mm
03:40 AM 34.2°F1.2°C 31.0°F-0.6°C 88% 4.3 mph SSW6.9 kmh SSW 4.2 mph6.8 kmh 30.01 in1016.3 mb 0.00 in0.0 mm 0.00 in0.0 mm 0.00 in0.0 mm
03:50 AM 34.2°F1.2°C 31.0°F-0.6°C 88% 3.6 mph SW5.8 kmh SW 4.9 mph7.9 kmh 30.02 in1016.6 mb 0.00 in0.0 mm 0.00 in0.0 mm 0.00 in0.0 mm
04:00 AM 34.0°F1.1°C 30.8°F-0.7°C 88% 3.4 mph SSW5.5 kmh SSW 3.4 mph5.5 kmh 30.02 in1016.6 mb 0.00 in0.0 mm 0.00 in0.0 mm 0.00 in0.0 mm
04:10 AM 33.8°F1.0°C 30.6°F-0.8°C 88% 3.3 mph ESE5.3 kmh ESE 4.2 mph6.8 kmh 30.01 in1016.3 mb 0.00 in0.0 mm 0.00 in0.0 mm 0.00 in0.0 mm
04:20 AM 33.8°F1.0°C 30.6°F-0.8°C 88% 2.9 mph SSW4.7 kmh SSW 3.4 mph5.5 kmh 30.02 in1016.6 mb 0.00 in0.0 mm 0.00 in0.0 mm 0.00 in0.0 mm
04:30 AM 33.8°F1.0°C 30.6°F-0.8°C 88% 2.9 mph SSW4.7 kmh SSW 3.4 mph5.5 kmh 30.01 in1016.3 mb 0.00 in0.0 mm 0.00 in0.0 mm 0.00 in0.0 mm
04:40 AM 33.8°F1.0°C 30.6°F-0.8°C 88% 3.3 mph S5.3 kmh S 4.2 mph6.8 kmh 30.02 in1016.6 mb 0.00 in0.0 mm 0.00 in0.0 mm 0.00 in0.0 mm
04:50 AM 33.8°F1.0°C 30.6°F-0.8°C 88% 3.6 mph SW5.8 kmh SW 4.2 mph6.8 kmh 30.01 in1016.3 mb 0.00 in0.0 mm 0.00 in0.0 mm 0.00 in0.0 mm
05:00 AM 34.0°F1.1°C 30.8°F-0.7°C 88% 3.5 mph SW5.6 kmh SW 4.9 mph7.9 kmh 30.02 in1016.6 mb 0.00 in0.0 mm 0.00 in0.0 mm 0.00 in0.0 mm
05:10 AM 34.0°F1.1°C 30.8°F-0.7°C 88% 3.8 mph SE6.1 kmh SE 5.9 mph9.5 kmh 30.02 in1016.6 mb 0.00 in0.0 mm 0.00 in0.0 mm 0.00 in0.0 mm
05:20 AM 34.0°F1.1°C 30.8°F-0.7°C 88% 3.1 mph SW5.0 kmh SW 4.9 mph7.9 kmh 30.02 in1016.6 mb 0.00 in0.0 mm 0.00 in0.0 mm 0.00 in0.0 mm
05:30 AM 34.2°F1.2°C 31.0°F-0.6°C 88% 3.1 mph SSW5.0 kmh SSW 4.2 mph6.8 kmh 30.01 in1016.3 mb 0.00 in0.0 mm 0.00 in0.0 mm 0.00 in0.0 mm
05:40 AM 34.2°F1.2°C 31.0°F-0.6°C 88% 4.5 mph WSW7.2 kmh WSW 4.9 mph7.9 kmh 30.02 in1016.6 mb 0.00 in0.0 mm 0.00 in0.0 mm 0.00 in0.0 mm
05:50 AM 34.2°F1.2°C 31.0°F-0.6°C 88% 4.3 mph SSW6.9 kmh SSW 4.9 mph7.9 kmh 30.01 in1016.3 mb 0.00 in0.0 mm 0.00 in0.0 mm 0.00 in0.0 mm
06:00 AM 34.2°F1.2°C 31.0°F-0.6°C 88% 3.2 mph SW5.1 kmh SW 4.2 mph6.8 kmh 30.02 in1016.6 mb 0.00 in0.0 mm 0.00 in0.0 mm 0.00 in0.0 mm
06:10 AM 34.0°F1.1°C 30.8°F-0.7°C 88% 0.6 mph SSW1.0 kmh SSW 2.5 mph4.0 kmh 30.02 in1016.6 mb 0.00 in0.0 mm 0.00 in0.0 mm 0.00 in0.0 mm
06:20 AM 34.0°F1.1°C 30.8°F-0.7°C 88% 1.5 mph SW2.4 kmh SW 3.4 mph5.5 kmh 30.02 in1016.6 mb 0.00 in0.0 mm 0.00 in0.0 mm 0.00 in0.0 mm
06:30 AM 33.8°F1.0°C 30.6°F-0.8°C 88% 3.4 mph SW5.5 kmh SW 4.2 mph6.8 kmh 30.01 in1016.3 mb 0.00 in0.0 mm 0.00 in0.0 mm 0.00 in0.0 mm
06:40 AM 34.0°F1.1°C 30.8°F-0.7°C 88% 3.9 mph SW6.3 kmh SW 4.9 mph7.9 kmh 30.01 in1016.3 mb 0.00 in0.0 mm 0.00 in0.0 mm 0.00 in0.0 mm
06:50 AM 33.8°F1.0°C 30.6°F-0.8°C 88% 3.8 mph S6.1 kmh S 4.2 mph6.8 kmh 30.02 in1016.6 mb 0.00 in0.0 mm 0.00 in0.0 mm 0.00 in0.0 mm
07:00 AM 33.8°F1.0°C 30.6°F-0.8°C 88% 3.8 mph S6.1 kmh S 4.2 mph6.8 kmh 30.01 in1016.3 mb 0.00 in0.0 mm 0.00 in0.0 mm 0.00 in0.0 mm
07:10 AM 33.6°F0.9°C 30.4°F-0.9°C 88% 3.3 mph W5.3 kmh W 4.9 mph7.9 kmh 30.01 in1016.3 mb 0.00 in0.0 mm 0.00 in0.0 mm 0.00 in0.0 mm
07:20 AM 33.4°F0.8°C 30.3°F-0.9°C 88% 3.2 mph WSW5.1 kmh WSW 4.2 mph6.8 kmh 30.01 in1016.3 mb 0.00 in0.0 mm 0.00 in0.0 mm 0.00 in0.0 mm
07:30 AM 33.1°F0.6°C 29.9°F-1.2°C 88% 2.8 mph SSW4.5 kmh SSW 4.2 mph6.8 kmh 30.00 in1015.9 mb 0.00 in0.0 mm 0.00 in0.0 mm 0.00 in0.0 mm
07:40 AM 32.9°F0.5°C 29.7°F-1.3°C 88% 2.2 mph SW3.5 kmh SW 3.4 mph5.5 kmh 30.01 in1016.3 mb 0.00 in0.0 mm 0.00 in0.0 mm 0.00 in0.0 mm
07:50 AM 32.9°F0.5°C 29.7°F-1.3°C 88% 2.6 mph SE4.2 kmh SE 3.4 mph5.5 kmh 30.00 in1015.9 mb 0.00 in0.0 mm 0.00 in0.0 mm 0.00 in0.0 mm
08:00 AM 32.9°F0.5°C 29.7°F-1.3°C 88% 4.9 mph SSE7.9 kmh SSE 4.9 mph7.9 kmh 30.00 in1015.9 mb 0.00 in0.0 mm 0.00 in0.0 mm 0.00 in0.0 mm
08:10 AM 33.3°F0.7°C 30.1°F-1.1°C 88% 4.5 mph S7.2 kmh S 4.9 mph7.9 kmh 30.00 in1015.9 mb 0.00 in0.0 mm 0.00 in0.0 mm 0.00 in0.0 mm
08:20 AM 33.4°F0.8°C 30.3°F-0.9°C 88% 3.9 mph SSW6.3 kmh SSW 4.2 mph6.8 kmh 29.99 in1015.6 mb 0.00 in0.0 mm 0.00 in0.0 mm 0.00 in0.0 mm
08:30 AM 34.0°F1.1°C 30.8°F-0.7°C 88% 4.9 mph SW7.9 kmh SW 5.9 mph9.5 kmh 29.99 in1015.6 mb 0.00 in0.0 mm 0.00 in0.0 mm 0.00 in0.0 mm
08:40 AM 34.7°F1.5°C 31.8°F-0.1°C 89% 5.3 mph SW8.5 kmh SW 5.9 mph9.5 kmh 29.99 in1015.6 mb 0.00 in0.0 mm 0.00 in0.0 mm 0.00 in0.0 mm
08:50 AM 35.1°F1.7°C 32.1°F0.1°C 89% 4.4 mph SW7.1 kmh SW 5.9 mph9.5 kmh 29.99 in1015.6 mb 0.00 in0.0 mm 0.00 in0.0 mm 0.00 in0.0 mm
09:00 AM 35.2°F1.8°C 32.3°F0.2°C 89% 4.7 mph S7.6 kmh S 4.9 mph7.9 kmh 29.99 in1015.6 mb 0.01 in0.3 mm 0.01 in0.3 mm 0.01 in0.3 mm
09:10 AM 35.4°F1.9°C 32.5°F0.3°C 89% 3.8 mph S6.1 kmh S 4.2 mph6.8 kmh 30.00 in1015.9 mb 0.01 in0.3 mm 0.00 in0.0 mm 0.01 in0.3 mm
09:20 AM 35.4°F1.9°C 32.5°F0.3°C 89% 1.3 mph SSE2.1 kmh SSE 2.5 mph4.0 kmh 30.00 in1015.9 mb 0.01 in0.3 mm 0.00 in0.0 mm 0.01 in0.3 mm
09:30 AM 36.0°F2.2°C 33.3°F0.7°C 90% 2.2 mph SE3.5 kmh SE 4.9 mph7.9 kmh 29.99 in1015.6 mb 0.01 in0.3 mm 0.00 in0.0 mm 0.01 in0.3 mm
09:40 AM 36.7°F2.6°C 34.0°F1.1°C 90% 3.0 mph SW4.8 kmh SW 4.2 mph6.8 kmh 29.99 in1015.6 mb 0.01 in0.3 mm 0.00 in0.0 mm 0.01 in0.3 mm
09:50 AM 37.4°F3.0°C 34.7°F1.5°C 90% 4.8 mph SW7.7 kmh SW 8.4 mph13.5 kmh 29.98 in1015.2 mb 0.01 in0.3 mm 0.00 in0.0 mm 0.01 in0.3 mm
10:00 AM 37.9°F3.3°C 35.3°F1.8°C 90% 6.5 mph S10.5 kmh S 7.6 mph12.2 kmh 29.98 in1015.2 mb 0.00 in0.0 mm 0.00 in0.0 mm 0.01 in0.3 mm
10:10 AM 38.1°F3.4°C 35.4°F1.9°C 90% 7.1 mph W11.4 kmh W 9.1 mph14.6 kmh 29.97 in1014.9 mb 0.00 in0.0 mm 0.00 in0.0 mm 0.01 in0.3 mm
10:20 AM 38.3°F3.5°C 35.6°F2.0°C 90% 7.1 mph WSW11.4 kmh WSW 6.6 mph10.6 kmh 29.97 in1014.9 mb 0.00 in0.0 mm 0.00 in0.0 mm 0.01 in0.3 mm
10:30 AM 39.9°F4.4°C 37.5°F3.1°C 91% 7.4 mph WSW11.9 kmh WSW 7.6 mph12.2 kmh 29.97 in1014.9 mb 0.00 in0.0 mm 0.00 in0.0 mm 0.01 in0.3 mm
10:40 AM 41.0°F5.0°C 38.6°F3.7°C 91% 8.9 mph S14.3 kmh S 9.1 mph14.6 kmh 29.98 in1015.2 mb 0.00 in0.0 mm 0.00 in0.0 mm 0.01 in0.3 mm
10:50 AM 41.7°F5.4°C 39.3°F4.1°C 91% 8.1 mph NNW13.0 kmh NNW 8.4 mph13.5 kmh 29.98 in1015.2 mb 0.00 in0.0 mm 0.00 in0.0 mm 0.01 in0.3 mm
11:00 AM 42.3°F5.7°C 39.8°F4.3°C 91% 9.3 mph S15.0 kmh S 10.8 mph17.4 kmh 29.96 in1014.6 mb 0.00 in0.0 mm 0.00 in0.0 mm 0.01 in0.3 mm
11:10 AM 42.1°F5.6°C 39.6°F4.2°C 91% 10.1 mph SSE16.3 kmh SSE 11.8 mph19.0 kmh 29.96 in1014.6 mb 0.00 in0.0 mm 0.00 in0.0 mm 0.01 in0.3 mm
11:20 AM 41.9°F5.5°C 39.5°F4.2°C 91% 9.7 mph S15.6 kmh S 11.8 mph19.0 kmh 29.96 in1014.6 mb 0.00 in0.0 mm 0.00 in0.0 mm 0.01 in0.3 mm
11:30 AM 41.9°F5.5°C 39.2°F4.0°C 90% 9.9 mph S15.9 kmh S 10.1 mph16.3 kmh 29.96 in1014.6 mb 0.00 in0.0 mm 0.00 in0.0 mm 0.01 in0.3 mm
11:40 AM 41.7°F5.4°C 39.0°F3.9°C 90% 9.9 mph WNW15.9 kmh WNW 12.5 mph20.1 kmh 29.96 in1014.6 mb 0.00 in0.0 mm 0.00 in0.0 mm 0.01 in0.3 mm
11:50 AM 41.5°F5.3°C 38.3°F3.5°C 88% 9.7 mph S15.6 kmh S 10.8 mph17.4 kmh 29.94 in1013.9 mb 0.00 in0.0 mm 0.00 in0.0 mm 0.01 in0.3 mm
12:00 PM 41.7°F5.4°C 38.4°F3.6°C 88% 11.1 mph S17.9 kmh S 12.5 mph20.1 kmh 29.94 in1013.9 mb 0.00 in0.0 mm 0.00 in0.0 mm 0.01 in0.3 mm
12:10 PM 41.9°F5.5°C 38.3°F3.5°C 87% 11.7 mph WSW18.8 kmh WSW 10.1 mph16.3 kmh 29.93 in1013.5 mb 0.00 in0.0 mm 0.00 in0.0 mm 0.01 in0.3 mm
12:20 PM 42.6°F5.9°C 39.0°F3.9°C 87% 12.1 mph SW19.5 kmh SW 11.8 mph19.0 kmh 29.92 in1013.2 mb 0.00 in0.0 mm 0.00 in0.0 mm 0.01 in0.3 mm
12:30 PM 42.6°F5.9°C 38.4°F3.6°C 85% 16.6 mph S26.7 kmh S 17.5 mph28.2 kmh 29.92 in1013.2 mb 0.00 in0.0 mm 0.00 in0.0 mm 0.01 in0.3 mm
12:40 PM 42.1°F5.6°C 37.3°F2.9°C 83% 14.0 mph S22.5 kmh S 12.5 mph20.1 kmh 29.91 in1012.9 mb 0.00 in0.0 mm 0.00 in0.0 mm 0.01 in0.3 mm
12:50 PM 41.7°F5.4°C 36.9°F2.7°C 83% 16.5 mph SSW26.6 kmh SSW 16.0 mph25.7 kmh 29.90 in1012.5 mb 0.00 in0.0 mm 0.00 in0.0 mm 0.01 in0.3 mm
01:00 PM 41.5°F5.3°C 36.8°F2.7°C 83% 16.2 mph S26.1 kmh S 20.2 mph32.5 kmh 29.89 in1012.2 mb 0.00 in0.0 mm 0.00 in0.0 mm 0.01 in0.3 mm
01:10 PM 41.5°F5.3°C 36.8°F2.7°C 83% 18.3 mph SW29.5 kmh SW 20.2 mph32.5 kmh 29.89 in1012.2 mb 0.00 in0.0 mm 0.00 in0.0 mm 0.01 in0.3 mm
01:20 PM 41.7°F5.4°C 37.2°F2.9°C 84% 16.0 mph SW25.7 kmh SW 15.0 mph24.1 kmh 29.88 in1011.9 mb 0.00 in0.0 mm 0.00 in0.0 mm 0.01 in0.3 mm
01:30 PM 41.9°F5.5°C 37.4°F3.0°C 84% 16.6 mph S26.7 kmh S 17.5 mph28.2 kmh 29.87 in1011.5 mb 0.00 in0.0 mm 0.00 in0.0 mm 0.01 in0.3 mm
01:40 PM 42.1°F5.6°C 37.6°F3.1°C 84% 16.9 mph SE27.2 kmh SE 16.7 mph26.9 kmh 29.87 in1011.5 mb 0.00 in0.0 mm 0.00 in0.0 mm 0.01 in0.3 mm
01:50 PM 42.3°F5.7°C 38.1°F3.4°C 85% 15.6 mph SSW25.1 kmh SSW 17.5 mph28.2 kmh 29.86 in1011.2 mb 0.00 in0.0 mm 0.00 in0.0 mm 0.01 in0.3 mm
02:00 PM 42.4°F5.8°C 38.2°F3.4°C 85% 16.0 mph SSW25.7 kmh SSW 16.7 mph26.9 kmh 29.86 in1011.2 mb 0.00 in0.0 mm 0.00 in0.0 mm 0.01 in0.3 mm
02:10 PM 42.4°F5.8°C 38.2°F3.4°C 85% 14.7 mph S23.7 kmh S 16.7 mph26.9 kmh 29.86 in1011.2 mb 0.00 in0.0 mm 0.00 in0.0 mm 0.01 in0.3 mm
02:20 PM 42.4°F5.8°C 38.2°F3.4°C 85% 15.5 mph S24.9 kmh S 15.0 mph24.1 kmh 29.85 in1010.8 mb 0.00 in0.0 mm 0.00 in0.0 mm 0.01 in0.3 mm
02:30 PM 42.6°F5.9°C 38.4°F3.6°C 85% 15.6 mph S25.1 kmh S 14.3 mph23.0 kmh 29.84 in1010.5 mb 0.00 in0.0 mm 0.00 in0.0 mm 0.01 in0.3 mm
02:40 PM 42.8°F6.0°C 38.6°F3.7°C 85% 16.1 mph S25.9 kmh S 19.2 mph30.9 kmh 29.83 in1010.2 mb 0.00 in0.0 mm 0.00 in0.0 mm 0.01 in0.3 mm
02:50 PM 43.0°F6.1°C 39.1°F3.9°C 86% 15.2 mph SW24.5 kmh SW 16.7 mph26.9 kmh 29.82 in1009.8 mb 0.00 in0.0 mm 0.00 in0.0 mm 0.01 in0.3 mm
03:00 PM 43.2°F6.2°C 39.3°F4.1°C 86% 13.5 mph S21.7 kmh S 12.5 mph20.1 kmh 29.82 in1009.8 mb 0.00 in0.0 mm 0.00 in0.0 mm 0.01 in0.3 mm
03:10 PM 43.2°F6.2°C 39.3°F4.1°C 86% 13.7 mph E22.0 kmh E 11.8 mph19.0 kmh 29.81 in1009.5 mb 0.00 in0.0 mm 0.00 in0.0 mm 0.01 in0.3 mm
03:20 PM 43.3°F6.3°C 39.4°F4.1°C 86% 14.2 mph SSW22.9 kmh SSW 16.7 mph26.9 kmh 29.81 in1009.5 mb 0.00 in0.0 mm 0.00 in0.0 mm 0.01 in0.3 mm
03:30 PM 43.3°F6.3°C 39.4°F4.1°C 86% 15.9 mph SSW25.6 kmh SSW 16.7 mph26.9 kmh 29.81 in1009.5 mb 0.00 in0.0 mm 0.00 in0.0 mm 0.01 in0.3 mm
03:40 PM 43.3°F6.3°C 39.4°F4.1°C 86% 14.0 mph SW22.5 kmh SW 16.7 mph26.9 kmh 29.80 in1009.1 mb 0.00 in0.0 mm 0.00 in0.0 mm 0.01 in0.3 mm
03:50 PM 43.3°F6.3°C 39.4°F4.1°C 86% 17.5 mph SSW28.2 kmh SSW 20.9 mph33.6 kmh 29.80 in1009.1 mb 0.00 in0.0 mm 0.00 in0.0 mm 0.01 in0.3 mm
04:00 PM 43.3°F6.3°C 39.7°F4.3°C 87% 17.9 mph S28.8 kmh S 19.2 mph30.9 kmh 29.79 in1008.8 mb 0.00 in0.0 mm 0.00 in0.0 mm 0.01 in0.3 mm
04:10 PM 43.2°F6.2°C 39.6°F4.2°C 87% 15.5 mph S24.9 kmh S 16.7 mph26.9 kmh 29.78 in1008.5 mb 0.00 in0.0 mm 0.00 in0.0 mm 0.01 in0.3 mm
04:20 PM 43.2°F6.2°C 39.6°F4.2°C 87% 16.7 mph S26.9 kmh S 21.7 mph34.9 kmh 29.77 in1008.1 mb 0.00 in0.0 mm 0.00 in0.0 mm 0.01 in0.3 mm
04:30 PM 43.3°F6.3°C 39.7°F4.3°C 87% 15.4 mph S24.8 kmh S 16.7 mph26.9 kmh 29.76 in1007.8 mb 0.00 in0.0 mm 0.00 in0.0 mm 0.01 in0.3 mm
04:40 PM 43.3°F6.3°C 40.0°F4.4°C 88% 15.4 mph SW24.8 kmh SW 15.0 mph24.1 kmh 29.76 in1007.8 mb 0.00 in0.0 mm 0.00 in0.0 mm 0.01 in0.3 mm
04:50 PM 43.3°F6.3°C 40.0°F4.4°C 88% 15.1 mph SSW24.3 kmh SSW 15.0 mph24.1 kmh 29.75 in1007.5 mb 0.00 in0.0 mm 0.00 in0.0 mm 0.01 in0.3 mm
05:00 PM 43.5°F6.4°C 40.2°F4.6°C 88% 14.2 mph SE22.9 kmh SE 14.3 mph23.0 kmh 29.74 in1007.1 mb 0.00 in0.0 mm 0.00 in0.0 mm 0.01 in0.3 mm
05:10 PM 43.7°F6.5°C 40.4°F4.7°C 88% 16.0 mph NW25.7 kmh NW 19.2 mph30.9 kmh 29.74 in1007.1 mb 0.00 in0.0 mm 0.00 in0.0 mm 0.01 in0.3 mm
05:20 PM 43.7°F6.5°C 40.7°F4.8°C 89% 14.9 mph S24.0 kmh S 14.3 mph23.0 kmh 29.74 in1007.1 mb 0.01 in0.3 mm 0.06 in1.5 mm 0.02 in0.5 mm
05:30 PM 43.9°F6.6°C 40.8°F4.9°C 89% 16.4 mph SW26.4 kmh SW 18.5 mph29.8 kmh 29.74 in1007.1 mb 0.01 in0.3 mm 0.00 in0.0 mm 0.02 in0.5 mm
05:40 PM 43.9°F6.6°C 40.8°F4.9°C 89% 16.2 mph SW26.1 kmh SW 20.9 mph33.6 kmh 29.75 in1007.5 mb 0.01 in0.3 mm 0.00 in0.0 mm 0.02 in0.5 mm
05:50 PM 43.9°F6.6°C 40.8°F4.9°C 89% 13.6 mph SW21.9 kmh SW 13.3 mph21.4 kmh 29.74 in1007.1 mb 0.01 in0.3 mm 0.00 in0.0 mm 0.02 in0.5 mm
06:00 PM 44.1°F6.7°C 41.0°F5.0°C 89% 15.9 mph S25.6 kmh S 16.0 mph25.7 kmh 29.73 in1006.8 mb 0.01 in0.3 mm 0.00 in0.0 mm 0.02 in0.5 mm
06:10 PM 44.1°F6.7°C 40.7°F4.8°C 88% 15.5 mph WSW24.9 kmh WSW 16.7 mph26.9 kmh 29.73 in1006.8 mb 0.01 in0.3 mm 0.00 in0.0 mm 0.02 in0.5 mm
06:20 PM 44.2°F6.8°C 40.9°F4.9°C 88% 16.7 mph S26.9 kmh S 18.5 mph29.8 kmh 29.73 in1006.8 mb 0.00 in0.0 mm 0.00 in0.0 mm 0.02 in0.5 mm
06:30 PM 44.2°F6.8°C 40.9°F4.9°C 88% 17.4 mph SE28.0 kmh SE 19.2 mph30.9 kmh 29.73 in1006.8 mb 0.00 in0.0 mm 0.00 in0.0 mm 0.02 in0.5 mm
06:40 PM 44.2°F6.8°C 40.9°F4.9°C 88% 16.7 mph S26.9 kmh S 20.2 mph32.5 kmh 29.72 in1006.4 mb 0.00 in0.0 mm 0.00 in0.0 mm 0.02 in0.5 mm
06:50 PM 44.2°F6.8°C 40.6°F4.8°C 87% 15.2 mph SSW24.5 kmh SSW 16.7 mph26.9 kmh 29.72 in1006.4 mb 0.00 in0.0 mm 0.00 in0.0 mm 0.02 in0.5 mm
07:00 PM 44.2°F6.8°C 40.6°F4.8°C 87% 13.4 mph SSE21.6 kmh SSE 17.5 mph28.2 kmh 29.72 in1006.4 mb 0.00 in0.0 mm 0.00 in0.0 mm 0.02 in0.5 mm
07:10 PM 44.4°F6.9°C 40.8°F4.9°C 87% 9.1 mph WSW14.6 kmh WSW 13.3 mph21.4 kmh 29.71 in1006.1 mb 0.00 in0.0 mm 0.00 in0.0 mm 0.02 in0.5 mm
07:20 PM 44.8°F7.1°C 39.6°F4.2°C 82% 12.8 mph S20.6 kmh S 14.3 mph23.0 kmh 29.70 in1005.8 mb 0.00 in0.0 mm 0.00 in0.0 mm 0.02 in0.5 mm
07:30 PM 45.1°F7.3°C 40.0°F4.4°C 82% 16.2 mph WSW26.1 kmh WSW 16.7 mph26.9 kmh 29.69 in1005.4 mb 0.00 in0.0 mm 0.00 in0.0 mm 0.02 in0.5 mm
07:40 PM 45.0°F7.2°C 39.8°F4.3°C 82% 15.1 mph SW24.3 kmh SW 16.7 mph26.9 kmh 29.70 in1005.8 mb 0.00 in0.0 mm 0.00 in0.0 mm 0.02 in0.5 mm
07:50 PM 45.0°F7.2°C 39.5°F4.2°C 81% 13.8 mph SSW22.2 kmh SSW 16.7 mph26.9 kmh 29.70 in1005.8 mb 0.00 in0.0 mm 0.00 in0.0 mm 0.02 in0.5 mm
08:00 PM 45.1°F7.3°C 39.7°F4.3°C 81% 12.2 mph SW19.6 kmh SW 15.0 mph24.1 kmh 29.70 in1005.8 mb 0.00 in0.0 mm 0.00 in0.0 mm 0.02 in0.5 mm
08:10 PM 45.7°F7.6°C 40.5°F4.7°C 82% 14.0 mph SW22.5 kmh SW 14.3 mph23.0 kmh 29.70 in1005.8 mb 0.00 in0.0 mm 0.00 in0.0 mm 0.02 in0.5 mm
08:20 PM 46.0°F7.8°C 40.5°F4.7°C 81% 15.3 mph WSW24.6 kmh WSW 20.2 mph32.5 kmh 29.69 in1005.4 mb 0.00 in0.0 mm 0.00 in0.0 mm 0.02 in0.5 mm
08:30 PM 45.9°F7.7°C 40.4°F4.7°C 81% 14.6 mph SW23.5 kmh SW 16.7 mph26.9 kmh 29.69 in1005.4 mb 0.00 in0.0 mm 0.00 in0.0 mm 0.02 in0.5 mm
08:40 PM 45.7°F7.6°C 39.9°F4.4°C 80% 16.8 mph SSW27.0 kmh SSW 17.5 mph28.2 kmh 29.68 in1005.1 mb 0.00 in0.0 mm 0.00 in0.0 mm 0.02 in0.5 mm
08:50 PM 45.7°F7.6°C 39.9°F4.4°C 80% 18.4 mph SSE29.6 kmh SSE 19.2 mph30.9 kmh 29.67 in1004.7 mb 0.00 in0.0 mm 0.00 in0.0 mm 0.02 in0.5 mm
09:00 PM 45.7°F7.6°C 39.9°F4.4°C 80% 19.1 mph SSW30.7 kmh SSW 21.7 mph34.9 kmh 29.68 in1005.1 mb 0.00 in0.0 mm 0.00 in0.0 mm 0.02 in0.5 mm
09:10 PM 45.7°F7.6°C 39.9°F4.4°C 80% 18.6 mph WSW29.9 kmh WSW 17.5 mph28.2 kmh 29.69 in1005.4 mb 0.00 in0.0 mm 0.00 in0.0 mm 0.02 in0.5 mm
09:20 PM 45.7°F7.6°C 39.9°F4.4°C 80% 17.1 mph SSW27.5 kmh SSW 21.7 mph34.9 kmh 29.68 in1005.1 mb 0.00 in0.0 mm 0.00 in0.0 mm 0.02 in0.5 mm
09:30 PM 45.9°F7.7°C 40.0°F4.4°C 80% 17.8 mph S28.6 kmh S 16.0 mph25.7 kmh 29.68 in1005.1 mb 0.00 in0.0 mm 0.00 in0.0 mm 0.02 in0.5 mm
09:40 PM 45.9°F7.7°C 40.0°F4.4°C 80% 15.1 mph SSW24.3 kmh SSW 17.5 mph28.2 kmh 29.67 in1004.7 mb 0.00 in0.0 mm 0.00 in0.0 mm 0.02 in0.5 mm
09:50 PM 46.0°F7.8°C 40.2°F4.6°C 80% 17.0 mph WSW27.4 kmh WSW 18.5 mph29.8 kmh 29.66 in1004.4 mb 0.00 in0.0 mm 0.00 in0.0 mm 0.02 in0.5 mm
10:00 PM 46.2°F7.9°C 40.4°F4.7°C 80% 16.6 mph SSW26.7 kmh SSW 17.5 mph28.2 kmh 29.66 in1004.4 mb 0.00 in0.0 mm 0.00 in0.0 mm 0.02 in0.5 mm
10:10 PM 46.2°F7.9°C 40.4°F4.7°C 80% 17.1 mph S27.5 kmh S 16.0 mph25.7 kmh 29.65 in1004.1 mb 0.00 in0.0 mm 0.00 in0.0 mm 0.02 in0.5 mm
10:20 PM 46.2°F7.9°C 40.7°F4.8°C 81% 15.3 mph S24.6 kmh S 16.7 mph26.9 kmh 29.65 in1004.1 mb 0.00 in0.0 mm 0.00 in0.0 mm 0.02 in0.5 mm
10:30 PM 46.6°F8.1°C 41.1°F5.1°C 81% 14.8 mph WSW23.8 kmh WSW 15.0 mph24.1 kmh 29.65 in1004.1 mb 0.00 in0.0 mm 0.00 in0.0 mm 0.02 in0.5 mm
10:40 PM 46.8°F8.2°C 41.2°F5.1°C 81% 14.9 mph SW24.0 kmh SW 16.7 mph26.9 kmh 29.65 in1004.1 mb 0.00 in0.0 mm 0.00 in0.0 mm 0.02 in0.5 mm
10:50 PM 46.9°F8.3°C 41.4°F5.2°C 81% 13.9 mph SW22.4 kmh SW 16.0 mph25.7 kmh 29.65 in1004.1 mb 0.00 in0.0 mm 0.00 in0.0 mm 0.02 in0.5 mm
11:00 PM 47.1°F8.4°C 41.6°F5.3°C 81% 12.2 mph SSW19.6 kmh SSW 15.0 mph24.1 kmh 29.66 in1004.4 mb 0.00 in0.0 mm 0.00 in0.0 mm 0.02 in0.5 mm
11:10 PM 47.1°F8.4°C 41.6°F5.3°C 81% 12.0 mph WNW19.3 kmh WNW 10.8 mph17.4 kmh 29.65 in1004.1 mb 0.00 in0.0 mm 0.00 in0.0 mm 0.02 in0.5 mm
11:20 PM 47.1°F8.4°C 41.6°F5.3°C 81% 12.7 mph SSE20.4 kmh SSE 17.5 mph28.2 kmh 29.65 in1004.1 mb 0.00 in0.0 mm 0.00 in0.0 mm 0.02 in0.5 mm
11:30 PM 47.1°F8.4°C 41.6°F5.3°C 81% 11.7 mph SW18.8 kmh SW 16.7 mph26.9 kmh 29.65 in1004.1 mb 0.00 in0.0 mm 0.00 in0.0 mm 0.02 in0.5 mm
11:40 PM 47.1°F8.4°C 41.6°F5.3°C 81% 13.4 mph SW21.6 kmh SW 15.0 mph24.1 kmh 29.65 in1004.1 mb 0.00 in0.0 mm 0.00 in0.0 mm 0.02 in0.5 mm
11:50 PM 47.1°F8.4°C 41.6°F5.3°C 81% 13.0 mph S20.9 kmh S 13.3 mph21.4 kmh 29.64 in1003.7 mb 0.00 in0.0 mm 0.00 in0.0 mm 0.02 in0.5 mm